Time,TemperatureF,DewpointF,PressureIn,WindDirection,WindDirectionDegrees,WindSpeedMPH,WindSpeedGustMPH,Humidity,HourlyPrecipIn,Conditions,Clouds,dailyrainin,SoftwareType,DateUTC
2013-04-11 00:00:00,35.5,27.4,29.87,North,360,5.0,5.0,72,0.00,RA,,0.00,WeatherDisplay:10.37,2013-04-11 05:00:00,
2013-04-11 00:05:00,35.5,27.0,29.87,North,360,5.8,5.8,71,0.00,RA,,0.00,WeatherDisplay:10.37,2013-04-11 05:05:00,
2013-04-11 00:10:00,35.5,27.4,29.87,ENE,62,3.5,3.5,72,0.00,OVC,,0.00,WeatherDisplay:10.37,2013-04-11 05:10:00,
2013-04-11 00:15:00,35.3,27.5,29.88,NNE,32,3.5,3.5,73,0.00,OVC,,0.00,WeatherDisplay:10.37,2013-04-11 05:15:00,
2013-04-11 00:20:00,35.0,27.9,29.88,North,5,5.0,5.0,75,0.00,OVC,,0.00,WeatherDisplay:10.37,2013-04-11 05:20:00,
2013-04-11 00:25:00,34.7,27.9,29.88,NNE,29,4.6,4.6,76,0.00,OVC,,0.00,WeatherDisplay:10.37,2013-04-11 05:25:00,
2013-04-11 00:30:00,34.4,27.9,29.86,North,355,5.8,5.8,77,0.00,OVC,,0.00,WeatherDisplay:10.37,2013-04-11 05:30:00,
2013-04-11 00:35:00,34.4,28.2,29.86,NNE,23,6.9,6.9,78,0.00,OVC,,0.00,WeatherDisplay:10.37,2013-04-11 05:35:00,
2013-04-11 00:40:00,34.3,28.5,29.86,North,351,5.8,5.8,79,0.00,OVC,,0.00,WeatherDisplay:10.37,2013-04-11 05:40:00,
2013-04-11 00:45:00,34.1,28.3,29.86,NNE,15,10.4,10.4,79,0.00,OVC,,0.00,WeatherDisplay:10.37,2013-04-11 05:45:00,
2013-04-11 00:50:00,34.1,28.3,29.85,NE,44,6.9,6.9,79,0.00,OVC,,0.00,WeatherDisplay:10.37,2013-04-11 05:50:00,
2013-04-11 00:55:00,34.3,28.2,29.85,NE,34,9.2,9.2,78,0.00,OVC,,0.00,WeatherDisplay:10.37,2013-04-11 05:55:00,
2013-04-11 01:00:00,34.3,28.2,29.85,NE,36,10.4,10.4,78,0.00,OVC,,0.00,WeatherDisplay:10.37,2013-04-11 06:00:00,
2013-04-11 01:05:00,34.3,27.8,29.85,North,5,11.5,11.5,77,0.00,OVC,,0.00,WeatherDisplay:10.37,2013-04-11 06:05:00,
2013-04-11 01:10:00,34.3,27.8,29.85,North,355,5.8,5.8,77,0.01,RA,,0.01,WeatherDisplay:10.37,2013-04-11 06:10:00,
2013-04-11 01:15:00,34.3,28.2,29.84,ENE,59,9.2,9.2,78,0.01,RA,,0.01,WeatherDisplay:10.37,2013-04-11 06:15:00,
2013-04-11 01:20:00,34.1,28.0,29.84,NE,42,6.9,6.9,78,0.01,OVC,,0.01,WeatherDisplay:10.37,2013-04-11 06:20:00,
2013-04-11 01:25:00,34.0,27.9,29.84,ENE,72,5.0,5.0,78,0.01,OVC,,0.01,WeatherDisplay:10.37,2013-04-11 06:25:00,
2013-04-11 01:30:00,34.0,27.9,29.83,North,10,5.8,5.8,78,0.01,OVC,,0.01,WeatherDisplay:10.37,2013-04-11 06:30:00,
2013-04-11 01:35:00,34.1,28.0,29.83,ENE,66,4.0,4.0,78,0.01,OVC,,0.01,WeatherDisplay:10.37,2013-04-11 06:35:00,
2013-04-11 01:40:00,34.1,27.6,29.83,East,94,4.6,4.6,77,0.01,OVC,,0.01,WeatherDisplay:10.37,2013-04-11 06:40:00,
2013-04-11 01:45:00,34.4,27.3,29.83,NE,43,6.9,6.9,75,0.01,OVC,,0.01,WeatherDisplay:10.37,2013-04-11 06:45:00,
2013-04-11 01:50:00,34.6,26.8,29.83,ENE,69,11.5,11.5,73,0.01,OVC,,0.01,WeatherDisplay:10.37,2013-04-11 06:50:00,
2013-04-11 01:55:00,34.7,26.6,29.83,ENE,64,5.0,5.0,72,0.01,OVC,,0.01,WeatherDisplay:10.37,2013-04-11 06:55:00,
2013-04-11 02:00:00,34.9,25.8,29.82,NE,40,10.4,10.4,69,0.01,OVC,,0.01,WeatherDisplay:10.37,2013-04-11 07:00:00,
2013-04-11 02:05:00,35.2,25.3,29.82,SE,132,10.4,10.4,67,0.01,OVC,,0.01,WeatherDisplay:10.37,2013-04-11 07:05:00,
2013-04-11 02:10:00,35.3,24.7,29.82,East,79,13.0,13.0,65,0.00,OVC,,0.01,WeatherDisplay:10.37,2013-04-11 07:10:00,
2013-04-11 02:15:00,35.5,24.5,29.80,NNE,27,12.7,12.7,64,0.00,OVC,,0.01,WeatherDisplay:10.37,2013-04-11 07:15:00,
2013-04-11 02:20:00,35.6,24.2,29.80,ENE,59,13.8,13.8,63,0.00,OVC,,0.01,WeatherDisplay:10.37,2013-04-11 07:20:00,
2013-04-11 02:25:00,35.9,23.4,29.80,ENE,71,21.9,21.9,60,0.00,OVC,,0.01,WeatherDisplay:10.37,2013-04-11 07:25:00,
2013-04-11 02:30:00,36.0,22.2,29.78,ENE,62,12.0,12.0,57,0.00,OVC,,0.01,WeatherDisplay:10.37,2013-04-11 07:30:00,
2013-04-11 02:35:00,36.0,22.6,29.78,NE,51,16.1,16.1,58,0.00,OVC,,0.01,WeatherDisplay:10.37,2013-04-11 07:35:00,
2013-04-11 02:40:00,35.9,22.5,29.78,East,90,13.0,13.0,58,0.00,OVC,,0.01,WeatherDisplay:10.37,2013-04-11 07:40:00,
2013-04-11 02:45:00,35.8,22.9,29.78,ENE,61,13.8,13.8,59,0.00,OVC,,0.01,WeatherDisplay:10.37,2013-04-11 07:45:00,
2013-04-11 02:50:00,35.6,22.7,29.78,ENE,57,19.6,19.6,59,0.00,OVC,,0.01,WeatherDisplay:10.37,2013-04-11 07:50:00,
2013-04-11 02:55:00,35.5,22.6,29.78,East,97,12.7,12.7,59,0.00,OVC,,0.01,WeatherDisplay:10.37,2013-04-11 07:55:00,
2013-04-11 03:00:00,35.3,22.8,29.78,East,84,10.4,10.4,60,0.00,OVC,,0.01,WeatherDisplay:10.37,2013-04-11 08:00:00,
2013-04-11 03:05:00,35.2,23.1,29.78,NE,50,11.5,11.5,61,0.00,OVC,,0.01,WeatherDisplay:10.37,2013-04-11 08:05:00,
2013-04-11 03:10:00,35.0,23.3,29.78,ESE,108,11.5,11.5,62,0.00,OVC,,0.01,WeatherDisplay:10.37,2013-04-11 08:10:00,
2013-04-11 03:15:00,34.7,23.8,29.77,NNE,21,13.8,13.8,64,0.00,OVC,,0.01,WeatherDisplay:10.37,2013-04-11 08:15:00,
2013-04-11 03:20:00,34.6,23.7,29.77,ESE,113,11.5,11.5,64,0.00,OVC,,0.01,WeatherDisplay:10.37,2013-04-11 08:20:00,
2013-04-11 03:25:00,34.3,24.1,29.77,NNE,13,6.9,6.9,66,0.00,OVC,,0.01,WeatherDisplay:10.37,2013-04-11 08:25:00,
2013-04-11 03:30:00,34.1,24.3,29.77,East,86,12.7,12.7,67,0.00,OVC,,0.01,WeatherDisplay:10.37,2013-04-11 08:30:00,
2013-04-11 03:35:00,34.1,24.3,29.77,East,88,6.9,6.9,67,0.00,OVC,,0.01,WeatherDisplay:10.37,2013-04-11 08:35:00,
2013-04-11 03:40:00,34.0,24.9,29.77,ENE,68,11.5,11.5,69,0.01,RA,,0.02,WeatherDisplay:10.37,2013-04-11 08:40:00,
2013-04-11 03:45:00,33.7,25.0,29.77,NE,46,11.5,11.5,70,0.01,RA,,0.02,WeatherDisplay:10.37,2013-04-11 08:45:00,
2013-04-11 03:50:00,33.4,25.3,29.77,NE,47,13.8,13.8,72,0.02,RA,,0.03,WeatherDisplay:10.37,2013-04-11 08:50:00,
2013-04-11 03:55:00,33.2,25.5,29.77,ENE,67,11.5,11.5,73,0.02,RA,,0.03,WeatherDisplay:10.37,2013-04-11 08:55:00,
2013-04-11 04:00:00,32.9,25.8,29.75,NE,43,9.2,9.2,75,0.03,RA,,0.04,WeatherDisplay:10.37,2013-04-11 09:00:00,
2013-04-11 04:05:00,32.7,26.0,29.75,ENE,58,12.7,12.7,76,0.03,RA,,0.04,WeatherDisplay:10.37,2013-04-11 09:05:00,
2013-04-11 04:10:00,32.5,26.1,29.75,ENE,75,11.5,11.5,77,0.03,OVC,,0.04,WeatherDisplay:10.37,2013-04-11 09:10:00,
2013-04-11 04:15:00,32.4,26.3,29.74,ENE,66,10.4,10.4,78,0.03,OVC,,0.04,WeatherDisplay:10.37,2013-04-11 09:15:00,
2013-04-11 04:20:00,32.2,26.4,29.74,ENE,63,9.2,9.2,79,0.03,OVC,,0.04,WeatherDisplay:10.37,2013-04-11 09:20:00,
2013-04-11 04:25:00,32.1,26.6,29.74,ENE,63,0.0,0.0,80,0.04,RA,,0.05,WeatherDisplay:10.37,2013-04-11 09:25:00,
2013-04-11 04:30:00,31.9,26.4,29.72,ENE,63,0.0,0.0,80,0.04,RA,,0.05,WeatherDisplay:10.37,2013-04-11 09:30:00,
2013-04-11 04:35:00,31.8,26.6,29.72,ENE,63,0.0,0.0,81,0.05,RA,,0.06,WeatherDisplay:10.37,2013-04-11 09:35:00,
2013-04-11 04:40:00,31.6,26.4,29.72,ENE,63,0.0,0.0,81,0.04,RA,,0.06,WeatherDisplay:10.37,2013-04-11 09:40:00,
2013-04-11 04:45:00,31.6,26.7,29.72,ENE,63,0.0,0.0,82,0.05,RA,,0.07,WeatherDisplay:10.37,2013-04-11 09:45:00,
2013-04-11 04:50:00,31.6,27.0,29.72,ENE,63,0.0,0.0,83,0.04,RA,,0.07,WeatherDisplay:10.37,2013-04-11 09:50:00,
2013-04-11 04:55:00,31.5,27.2,29.72,ENE,63,0.0,0.0,84,0.04,OVC,,0.07,WeatherDisplay:10.37,2013-04-11 09:55:00,
2013-04-11 05:00:00,31.3,27.0,29.72,ENE,63,0.0,0.0,84,0.03,OVC,,0.07,WeatherDisplay:10.37,2013-04-11 10:00:00,
2013-04-11 05:05:00,31.3,27.3,29.72,ENE,63,0.0,0.0,85,0.03,OVC,,0.07,WeatherDisplay:10.37,2013-04-11 10:05:00,
2013-04-11 05:10:00,31.2,27.2,29.72,ENE,63,0.0,0.0,85,0.03,OVC,,0.07,WeatherDisplay:10.37,2013-04-11 10:10:00,
2013-04-11 05:15:00,31.2,27.2,29.75,ENE,63,0.0,0.0,85,0.03,OVC,,0.07,WeatherDisplay:10.37,2013-04-11 10:15:00,
2013-04-11 05:20:00,31.0,27.3,29.75,ENE,63,0.0,0.0,86,0.03,OVC,,0.07,WeatherDisplay:10.37,2013-04-11 10:20:00,
2013-04-11 05:25:00,31.0,27.3,29.75,ENE,63,0.0,0.0,86,0.02,OVC,,0.07,WeatherDisplay:10.37,2013-04-11 10:25:00,
2013-04-11 05:30:00,30.9,27.2,29.76,ENE,63,0.0,0.0,86,0.02,OVC,,0.07,WeatherDisplay:10.37,2013-04-11 10:30:00,
2013-04-11 05:35:00,30.9,27.2,29.76,ENE,63,0.0,0.0,86,0.01,OVC,,0.07,WeatherDisplay:10.37,2013-04-11 10:35:00,
2013-04-11 05:40:00,30.9,27.2,29.76,ENE,63,0.0,0.0,86,0.01,OVC,,0.07,WeatherDisplay:10.37,2013-04-11 10:40:00,
2013-04-11 05:45:00,30.7,27.3,29.77,ENE,63,0.0,0.0,87,0.00,OVC,,0.07,WeatherDisplay:10.37,2013-04-11 10:45:00,
2013-04-11 05:50:00,30.7,27.3,29.77,ENE,63,0.0,0.0,87,0.00,OVC,,0.07,WeatherDisplay:10.37,2013-04-11 10:50:00,
2013-04-11 05:55:00,30.7,27.3,29.77,ENE,63,0.0,0.0,87,0.00,OVC,,0.07,WeatherDisplay:10.37,2013-04-11 10:55:00,
2013-04-11 06:00:00,30.7,27.6,29.80,ENE,63,0.0,0.0,88,0.00,OVC,,0.07,WeatherDisplay:10.37,2013-04-11 11:00:00,
2013-04-11 06:05:00,30.6,27.5,29.80,ENE,63,0.0,0.0,88,0.00,OVC,,0.07,WeatherDisplay:10.37,2013-04-11 11:05:00,
2013-04-11 06:10:00,30.6,27.5,29.80,ENE,63,0.0,0.0,88,0.00,OVC,,0.07,WeatherDisplay:10.37,2013-04-11 11:10:00,
2013-04-11 06:15:00,30.4,27.3,29.78,ENE,63,0.0,0.0,88,0.00,OVC,,0.07,WeatherDisplay:10.37,2013-04-11 11:15:00,
2013-04-11 06:20:00,30.4,27.5,29.78,ENE,63,0.0,0.0,89,0.00,OVC,,0.07,WeatherDisplay:10.37,2013-04-11 11:20:00,
2013-04-11 06:25:00,30.3,27.4,29.78,ENE,63,0.0,0.0,89,0.00,OVC,,0.07,WeatherDisplay:10.37,2013-04-11 11:25:00,
2013-04-11 06:30:00,30.1,27.3,29.76,ENE,63,0.0,0.0,89,0.00,OVC,,0.07,WeatherDisplay:10.37,2013-04-11 11:30:00,
2013-04-11 06:35:00,30.1,27.5,29.77,ENE,63,0.0,0.0,90,0.00,OVC,,0.07,WeatherDisplay:10.37,2013-04-11 11:35:00,
2013-04-11 06:40:00,30.1,27.5,29.77,ENE,63,0.0,0.0,90,0.00,OVC,,0.07,WeatherDisplay:10.37,2013-04-11 11:40:00,
2013-04-11 06:45:00,30.1,27.5,29.75,ENE,63,0.0,0.0,90,0.00,OVC,,0.07,WeatherDisplay:10.37,2013-04-11 11:45:00,
2013-04-11 06:50:00,30.0,27.4,29.75,ENE,63,0.0,0.0,90,0.00,OVC,,0.07,WeatherDisplay:10.37,2013-04-11 11:50:00,
2013-04-11 06:55:00,30.0,27.7,29.75,ENE,63,0.0,0.0,91,0.00,OVC,,0.07,WeatherDisplay:10.37,2013-04-11 11:55:00,
2013-04-11 07:00:00,29.8,27.5,29.75,ENE,63,0.0,0.0,91,0.00,OVC,,0.07,WeatherDisplay:10.37,2013-04-11 12:00:00,
2013-04-11 07:05:00,29.8,27.5,29.75,ENE,63,0.0,0.0,91,0.00,OVC,,0.07,WeatherDisplay:10.37,2013-04-11 12:05:00,
2013-04-11 07:10:00,29.8,27.5,29.75,ENE,63,0.0,0.0,91,0.00,OVC,,0.07,WeatherDisplay:10.37,2013-04-11 12:10:00,
2013-04-11 07:15:00,29.8,27.8,29.75,ENE,63,0.0,0.0,92,0.00,OVC,,0.07,WeatherDisplay:10.37,2013-04-11 12:15:00,
2013-04-11 07:20:00,29.8,27.8,29.75,ENE,63,0.0,0.0,92,0.00,OVC,,0.07,WeatherDisplay:10.37,2013-04-11 12:20:00,
2013-04-11 07:25:00,29.8,27.8,29.75,ENE,63,0.0,0.0,92,0.00,OVC,,0.07,WeatherDisplay:10.37,2013-04-11 12:25:00,
2013-04-11 07:30:00,29.8,27.8,29.74,ENE,63,0.0,0.0,92,0.00,OVC,,0.07,WeatherDisplay:10.37,2013-04-11 12:30:00,
2013-04-11 07:35:00,30.0,28.0,29.74,ENE,63,0.0,0.0,92,0.00,OVC,,0.07,WeatherDisplay:10.37,2013-04-11 12:35:00,
2013-04-11 07:40:00,30.0,28.0,29.74,ENE,63,0.0,0.0,92,0.00,OVC,,0.07,WeatherDisplay:10.37,2013-04-11 12:40:00,
2013-04-11 07:45:00,30.0,28.0,29.73,ENE,63,0.0,0.0,92,0.00,OVC,,0.07,WeatherDisplay:10.37,2013-04-11 12:45:00,
2013-04-11 07:50:00,30.0,28.0,29.73,ENE,63,0.0,0.0,92,0.00,OVC,,0.07,WeatherDisplay:10.37,2013-04-11 12:50:00,
2013-04-11 07:55:00,30.0,28.2,29.73,ENE,63,0.0,0.0,93,0.00,OVC,,0.07,WeatherDisplay:10.37,2013-04-11 12:55:00,
2013-04-11 08:00:00,30.0,28.2,29.73,ENE,63,0.0,0.0,93,0.00,OVC,,0.07,WeatherDisplay:10.37,2013-04-11 13:00:00,
2013-04-11 08:05:00,30.0,28.2,29.73,ENE,63,0.0,0.0,93,0.00,OVC,,0.07,WeatherDisplay:10.37,2013-04-11 13:05:00,
2013-04-11 08:10:00,30.0,28.2,29.73,ENE,63,0.0,0.0,93,0.00,OVC,,0.07,WeatherDisplay:10.37,2013-04-11 13:10:00,
2013-04-11 08:15:00,30.0,28.2,29.72,ENE,63,0.0,0.0,93,0.00,OVC,,0.07,WeatherDisplay:10.37,2013-04-11 13:15:00,
2013-04-11 08:20:00,30.0,28.2,29.72,ENE,63,0.0,0.0,93,0.00,OVC,,0.07,WeatherDisplay:10.37,2013-04-11 13:20:00,
2013-04-11 08:25:00,30.0,28.2,29.72,ENE,63,0.0,0.0,93,0.00,OVC,,0.07,WeatherDisplay:10.37,2013-04-11 13:25:00,
2013-04-11 08:30:00,30.0,28.2,29.73,ENE,63,0.0,0.0,93,0.00,OVC,,0.07,WeatherDisplay:10.37,2013-04-11 13:30:00,
2013-04-11 08:35:00,30.0,28.2,29.73,ENE,63,0.0,0.0,93,0.00,OVC,,0.07,WeatherDisplay:10.37,2013-04-11 13:35:00,
2013-04-11 08:40:00,30.0,28.2,29.73,ENE,63,0.0,0.0,93,0.00,OVC,,0.07,WeatherDisplay:10.37,2013-04-11 13:40:00,
2013-04-11 08:45:00,30.0,28.2,29.72,ENE,63,0.0,0.0,93,0.00,OVC,,0.07,WeatherDisplay:10.37,2013-04-11 13:45:00,
2013-04-11 08:50:00,30.1,28.3,29.72,ENE,63,0.0,0.0,93,0.00,OVC,,0.07,WeatherDisplay:10.37,2013-04-11 13:50:00,
2013-04-11 08:55:00,30.4,28.9,29.72,ENE,63,0.0,0.0,94,0.00,OVC,,0.07,WeatherDisplay:10.37,2013-04-11 13:55:00,
2013-04-11 09:00:00,30.6,29.1,29.71,ENE,63,0.0,0.0,94,0.00,OVC,,0.07,WeatherDisplay:10.37,2013-04-11 14:00:00,
2013-04-11 09:06:00,30.7,29.2,29.71,ENE,63,0.0,0.0,94,0.00,OVC,,0.07,WeatherDisplay:10.37,2013-04-11 14:06:00,
2013-04-11 09:11:00,30.7,29.2,29.71,ENE,63,0.0,0.0,94,0.00,OVC,,0.07,WeatherDisplay:10.37,2013-04-11 14:11:00,
2013-04-11 09:16:00,30.9,29.4,29.71,ENE,63,0.0,0.0,94,0.00,OVC,,0.07,WeatherDisplay:10.37,2013-04-11 14:16:00,
2013-04-11 09:21:00,31.0,29.5,29.71,ENE,63,0.0,0.0,94,0.00,OVC,,0.07,WeatherDisplay:10.37,2013-04-11 14:21:00,
2013-04-11 09:26:00,31.0,29.5,29.71,ENE,64,0.0,0.0,94,0.00,OVC,,0.07,WeatherDisplay:10.37,2013-04-11 14:26:00,
2013-04-11 09:31:00,31.0,29.5,29.71,ENE,69,0.0,0.0,94,0.00,OVC,,0.07,WeatherDisplay:10.37,2013-04-11 14:31:00,
2013-04-11 09:36:00,31.2,29.7,29.71,NNE,24,0.0,0.0,94,0.00,OVC,,0.07,WeatherDisplay:10.37,2013-04-11 14:36:00,
2013-04-11 09:42:00,31.2,29.7,29.71,NE,52,0.0,0.0,94,0.01,RA,,0.08,WeatherDisplay:10.37,2013-04-11 14:42:00,
2013-04-11 09:47:00,31.2,29.7,29.71,ESE,119,0.0,0.0,94,0.01,RA,,0.08,WeatherDisplay:10.37,2013-04-11 14:47:00,
2013-04-11 09:52:00,31.2,29.7,29.71,NE,56,0.0,0.0,94,0.01,OVC,,0.08,WeatherDisplay:10.37,2013-04-11 14:52:00,
2013-04-11 09:57:00,31.2,29.7,29.71,East,80,0.0,0.0,94,0.01,OVC,,0.08,WeatherDisplay:10.37,2013-04-11 14:57:00,
2013-04-11 10:02:00,31.3,29.8,29.72,NE,42,0.0,0.0,94,0.01,OVC,,0.08,WeatherDisplay:10.37,2013-04-11 15:02:00,
2013-04-11 10:07:00,31.3,29.8,29.72,NNE,25,0.0,0.0,94,0.01,OVC,,0.08,WeatherDisplay:10.37,2013-04-11 15:07:00,
2013-04-11 10:12:00,31.3,29.8,29.72,East,97,0.0,0.0,94,0.01,OVC,,0.08,WeatherDisplay:10.37,2013-04-11 15:12:00,
2013-04-11 10:17:00,31.5,30.0,29.72,ESE,107,0.0,0.0,94,0.01,OVC,,0.08,WeatherDisplay:10.37,2013-04-11 15:17:00,
2013-04-11 10:22:00,31.5,30.0,29.72,NE,46,0.0,0.0,94,0.02,RA,,0.09,WeatherDisplay:10.37,2013-04-11 15:22:00,
2013-04-11 10:27:00,31.5,30.0,29.72,ENE,74,11.5,11.5,94,0.02,RA,,0.09,WeatherDisplay:10.37,2013-04-11 15:27:00,
2013-04-11 10:32:00,31.6,30.1,29.72,NNE,25,6.9,6.9,94,0.02,OVC,,0.09,WeatherDisplay:10.37,2013-04-11 15:32:00,
2013-04-11 10:37:00,31.8,30.3,29.72,NNE,30,5.8,5.8,94,0.02,OVC,,0.09,WeatherDisplay:10.37,2013-04-11 15:37:00,
2013-04-11 10:42:00,31.8,30.3,29.72,NE,51,11.5,11.5,94,0.02,RA,,0.10,WeatherDisplay:10.37,2013-04-11 15:42:00,
2013-04-11 10:47:00,31.8,30.3,29.70,ENE,78,10.4,10.4,94,0.02,RA,,0.10,WeatherDisplay:10.37,2013-04-11 15:47:00,
2013-04-11 10:53:00,31.8,30.3,29.70,NE,56,5.0,14.0,94,0.00,OVC,,0.10,WeatherDisplay:10.37,2013-04-11 15:53:00,
2013-04-11 10:58:00,31.9,30.4,29.70,NE,46,10.4,10.4,94,0.02,OVC,,0.10,WeatherDisplay:10.37,2013-04-11 15:58:00,
2013-04-11 11:03:00,31.9,30.4,29.71,East,94,6.0,6.0,94,0.02,OVC,,0.10,WeatherDisplay:10.37,2013-04-11 16:03:00,
2013-04-11 11:08:00,32.1,30.6,29.71,SE,142,6.0,6.0,94,0.03,RA,,0.11,WeatherDisplay:10.37,2013-04-11 16:08:00,
2013-04-11 11:13:00,31.9,30.4,29.71,ENE,69,5.0,12.0,94,0.00,RA,,0.11,WeatherDisplay:10.37,2013-04-11 16:13:00,
2013-04-11 11:18:00,32.1,30.6,29.71,NE,54,9.0,9.0,94,0.03,-SN,,0.11,WeatherDisplay:10.37,2013-04-11 16:18:00,
2013-04-11 11:23:00,32.1,30.6,29.71,NE,56,4.6,4.6,94,0.03,-SN,,0.12,WeatherDisplay:10.37,2013-04-11 16:23:00,
2013-04-11 11:28:00,32.1,30.6,29.71,NE,46,6.0,9.0,94,0.00,-SN,,0.12,WeatherDisplay:10.37,2013-04-11 16:28:00,
2013-04-11 11:33:00,32.1,30.6,29.72,ENE,59,9.2,9.2,94,0.03,-SN,,0.12,WeatherDisplay:10.37,2013-04-11 16:33:00,
2013-04-11 11:38:00,32.2,30.7,29.72,East,82,3.5,3.5,94,0.03,-SN,,0.12,WeatherDisplay:10.37,2013-04-11 16:38:00,
2013-04-11 11:43:00,32.2,30.7,29.72,East,94,9.2,9.2,94,0.03,-SN,,0.13,WeatherDisplay:10.37,2013-04-11 16:43:00,
2013-04-11 11:48:00,32.4,30.9,29.72,NE,34,6.9,6.9,94,0.03,-SN,,0.13,WeatherDisplay:10.37,2013-04-11 16:48:00,
2013-04-11 11:53:00,32.4,30.9,29.72,NE,42,9.2,9.2,94,0.03,-SN,,0.13,WeatherDisplay:10.37,2013-04-11 16:53:00,
2013-04-11 11:58:00,32.4,30.9,29.72,ENE,78,9.2,9.2,94,0.03,-SN,,0.13,WeatherDisplay:10.37,2013-04-11 16:58:00,
2013-04-11 12:03:00,32.5,31.0,29.71,North,5,6.9,6.9,94,0.04,-SN,,0.14,WeatherDisplay:10.37,2013-04-11 17:03:00,
2013-04-11 12:08:00,32.5,31.0,29.71,SSE,158,9.2,9.2,94,0.03,-SN,,0.14,WeatherDisplay:10.37,2013-04-11 17:08:00,
2013-04-11 12:13:00,32.5,31.0,29.70,ENE,65,11.5,11.5,94,0.03,-SN,,0.14,WeatherDisplay:10.37,2013-04-11 17:13:00,
2013-04-11 12:18:00,32.7,31.2,29.70,East,83,8.0,8.0,94,0.04,-SN,,0.15,WeatherDisplay:10.37,2013-04-11 17:18:00,
2013-04-11 12:23:00,32.8,31.3,29.70,ENE,61,9.2,9.2,94,0.03,-SN,,0.15,WeatherDisplay:10.37,2013-04-11 17:23:00,
2013-04-11 12:28:00,32.7,31.2,29.69,ENE,68,9.2,9.2,94,0.03,-SN,,0.16,WeatherDisplay:10.37,2013-04-11 17:28:00,
2013-04-11 12:33:00,32.8,31.3,29.69,ENE,66,9.2,9.2,94,0.04,-SN,,0.16,WeatherDisplay:10.37,2013-04-11 17:33:00,
2013-04-11 12:38:00,32.8,31.3,29.69,ENE,67,10.4,10.4,94,0.04,-SN,,0.16,WeatherDisplay:10.37,2013-04-11 17:38:00,
2013-04-11 12:43:00,32.8,31.3,29.69,ENE,65,11.5,11.5,94,0.04,-SN,,0.16,WeatherDisplay:10.37,2013-04-11 17:43:00,
2013-04-11 12:48:00,32.9,31.4,29.69,ESE,111,11.5,11.5,94,0.04,-DZ,,0.17,WeatherDisplay:10.37,2013-04-11 17:48:00,
2013-04-11 12:53:00,32.9,31.4,29.69,SE,145,9.2,9.2,94,0.04,-DZ,,0.17,WeatherDisplay:10.37,2013-04-11 17:53:00,
2013-04-11 12:58:00,33.1,31.6,29.69,ENE,75,10.4,10.4,94,0.05,-DZ,,0.18,WeatherDisplay:10.37,2013-04-11 17:58:00,
2013-04-11 13:03:00,33.1,31.6,29.68,ENE,71,9.2,9.2,94,0.04,-DZ,,0.18,WeatherDisplay:10.37,2013-04-11 18:03:00,
2013-04-11 13:08:00,33.1,31.6,29.68,NE,55,11.5,11.5,94,0.04,-DZ,,0.18,WeatherDisplay:10.37,2013-04-11 18:08:00,
2013-04-11 13:13:00,33.1,31.6,29.67,East,85,6.9,6.9,94,0.05,-DZ,,0.19,WeatherDisplay:10.37,2013-04-11 18:13:00,
2013-04-11 13:18:00,33.1,31.6,29.67,ENE,76,8.1,8.1,94,0.04,-DZ,,0.19,WeatherDisplay:10.37,2013-04-11 18:18:00,
2013-04-11 13:23:00,33.2,31.7,29.67,NE,54,5.8,5.8,94,0.05,-DZ,,0.20,WeatherDisplay:10.37,2013-04-11 18:23:00,
2013-04-11 13:28:00,33.2,31.7,29.66,NE,38,7.0,7.0,94,0.05,-DZ,,0.20,WeatherDisplay:10.37,2013-04-11 18:28:00,
2013-04-11 13:33:00,33.2,31.7,29.66,ENE,71,9.2,9.2,94,0.04,OVC,,0.20,WeatherDisplay:10.37,2013-04-11 18:33:00,
2013-04-11 13:38:00,33.2,31.7,29.66,ESE,123,9.2,9.2,94,0.05,RA,,0.21,WeatherDisplay:10.37,2013-04-11 18:38:00,
2013-04-11 13:43:00,33.2,31.7,29.66,ENE,67,10.4,10.4,94,0.05,RA,,0.21,WeatherDisplay:10.37,2013-04-11 18:43:00,
2013-04-11 13:48:00,33.4,31.6,29.66,East,80,9.2,9.2,93,0.04,-DZ,,0.21,WeatherDisplay:10.37,2013-04-11 18:48:00,
2013-04-11 13:53:00,33.4,31.6,29.66,East,85,5.8,5.8,93,0.05,-DZ,,0.22,WeatherDisplay:10.37,2013-04-11 18:53:00,
2013-04-11 13:58:00,33.4,31.6,29.66,East,84,11.5,11.5,93,0.04,-DZ,,0.22,WeatherDisplay:10.37,2013-04-11 18:58:00,
2013-04-11 14:03:00,33.5,31.7,29.64,NE,55,10.4,10.4,93,0.04,-DZ,,0.22,WeatherDisplay:10.37,2013-04-11 19:03:00,
2013-04-11 14:08:00,33.5,31.7,29.64,East,94,12.7,12.7,93,0.05,-DZ,,0.23,WeatherDisplay:10.37,2013-04-11 19:08:00,
2013-04-11 14:13:00,33.5,31.4,29.65,ENE,77,11.5,11.5,92,0.04,-DZ,,0.23,WeatherDisplay:10.37,2013-04-11 19:13:00,
2013-04-11 14:18:00,33.7,31.6,29.65,East,90,11.5,11.5,92,0.04,-DZ,,0.23,WeatherDisplay:10.37,2013-04-11 19:18:00,
2013-04-11 14:23:00,33.8,31.7,29.65,ENE,73,4.6,4.6,92,0.05,-DZ,,0.24,WeatherDisplay:10.37,2013-04-11 19:23:00,
2013-04-11 14:28:00,33.7,31.6,29.65,East,87,13.8,13.8,92,0.04,-DZ,,0.24,WeatherDisplay:10.37,2013-04-11 19:28:00,
2013-04-11 14:33:00,33.7,31.6,29.66,East,80,10.4,10.4,92,0.04,OVC,,0.24,WeatherDisplay:10.37,2013-04-11 19:33:00,
2013-04-11 14:38:00,33.7,31.6,29.66,ENE,72,12.7,12.7,92,0.04,-DZ,,0.25,WeatherDisplay:10.37,2013-04-11 19:38:00,
2013-04-11 14:43:00,33.7,31.6,29.66,ENE,62,6.9,6.9,92,0.04,-DZ,,0.25,WeatherDisplay:10.37,2013-04-11 19:43:00,
2013-04-11 14:48:00,33.8,31.7,29.66,ENE,59,6.9,6.9,92,0.04,-DZ,,0.25,WeatherDisplay:10.37,2013-04-11 19:48:00,
2013-04-11 14:53:00,33.7,31.6,29.66,ENE,60,6.9,6.9,92,0.04,RA,,0.26,WeatherDisplay:10.37,2013-04-11 19:53:00,
2013-04-11 14:58:00,33.8,31.7,29.66,ENE,67,4.6,4.6,92,0.04,RA,,0.26,WeatherDisplay:10.37,2013-04-11 19:58:00,
2013-04-11 15:03:00,33.8,31.7,29.66,NE,47,8.1,8.1,92,0.04,OVC,,0.26,WeatherDisplay:10.37,2013-04-11 20:03:00,
2013-04-11 15:08:00,33.7,31.6,29.66,ENE,69,11.5,11.5,92,0.03,OVC,,0.26,WeatherDisplay:10.37,2013-04-11 20:08:00,
2013-04-11 15:13:00,33.7,31.6,29.66,ENE,63,6.9,6.9,92,0.04,RA,,0.27,WeatherDisplay:10.37,2013-04-11 20:13:00,
2013-04-11 15:18:00,33.7,31.4,29.66,East,93,6.9,6.9,91,0.04,RA,,0.27,WeatherDisplay:10.37,2013-04-11 20:18:00,
2013-04-11 15:23:00,33.7,31.6,29.66,ENE,74,12.7,12.7,92,0.03,OVC,,0.27,WeatherDisplay:10.37,2013-04-11 20:23:00,
2013-04-11 15:28:00,33.5,31.2,29.66,ENE,59,9.2,9.2,91,0.04,RA,,0.28,WeatherDisplay:10.37,2013-04-11 20:28:00,
2013-04-11 15:33:00,33.5,31.2,29.66,East,82,10.4,10.4,91,0.04,RA,,0.28,WeatherDisplay:10.37,2013-04-11 20:33:00,
2013-04-11 15:38:00,33.8,31.7,29.66,East,91,3.5,3.5,92,0.03,OVC,,0.28,WeatherDisplay:10.37,2013-04-11 20:38:00,
2013-04-11 15:43:00,33.7,31.4,29.66,North,5,10.4,10.4,91,0.04,RA,,0.29,WeatherDisplay:10.37,2013-04-11 20:43:00,
2013-04-11 15:48:00,33.5,31.4,29.66,ENE,68,10.4,10.4,92,0.04,RA,,0.29,WeatherDisplay:10.37,2013-04-11 20:48:00,
2013-04-11 15:53:00,33.5,31.4,29.66,East,83,5.8,5.8,92,0.03,OVC,,0.29,WeatherDisplay:10.37,2013-04-11 20:53:00,
2013-04-11 15:58:00,33.7,31.6,29.65,ENE,69,10.4,10.4,92,0.04,RA,,0.30,WeatherDisplay:10.37,2013-04-11 20:58:00,
2013-04-11 16:03:00,33.5,31.4,29.65,NNE,26,5.8,5.8,92,0.04,RA,,0.30,WeatherDisplay:10.37,2013-04-11 21:03:00,
2013-04-11 16:08:00,33.5,31.4,29.65,ENE,71,10.4,10.4,92,0.04,OVC,,0.30,WeatherDisplay:10.37,2013-04-11 21:08:00,
2013-04-11 16:13:00,33.5,31.4,29.65,ENE,62,11.5,11.5,92,0.03,OVC,,0.30,WeatherDisplay:10.37,2013-04-11 21:13:00,
2013-04-11 16:19:00,33.5,31.4,29.65,East,89,9.2,9.2,92,0.04,RA,,0.31,WeatherDisplay:10.37,2013-04-11 21:19:00,
2013-04-11 16:24:00,33.7,31.6,29.65,ENE,74,9.2,9.2,92,0.04,RA,,0.31,WeatherDisplay:10.37,2013-04-11 21:24:00,
2013-04-11 16:29:00,33.5,31.4,29.65,NE,53,5.8,5.8,92,0.03,OVC,,0.31,WeatherDisplay:10.37,2013-04-11 21:29:00,
2013-04-11 16:34:00,33.7,31.6,29.65,ENE,58,10.4,10.4,92,0.03,OVC,,0.31,WeatherDisplay:10.37,2013-04-11 21:34:00,
2013-04-11 16:39:00,33.5,31.4,29.65,ENE,61,11.5,11.5,92,0.03,OVC,,0.31,WeatherDisplay:10.37,2013-04-11 21:39:00,
2013-04-11 16:44:00,33.5,31.4,29.66,NE,40,6.9,6.9,92,0.03,RA,,0.32,WeatherDisplay:10.37,2013-04-11 21:44:00,
2013-04-11 16:49:00,33.5,31.4,29.66,ENE,65,8.1,8.1,92,0.03,RA,,0.32,WeatherDisplay:10.37,2013-04-11 21:49:00,
2013-04-11 16:54:00,33.4,31.3,29.66,NE,55,6.9,6.9,92,0.03,OVC,,0.32,WeatherDisplay:10.37,2013-04-11 21:54:00,
2013-04-11 16:59:00,33.4,31.6,29.65,ENE,61,10.4,10.4,93,0.02,OVC,,0.32,WeatherDisplay:10.37,2013-04-11 21:59:00,
2013-04-11 17:04:00,33.4,31.6,29.65,ENE,63,5.8,5.8,93,0.02,OVC,,0.32,WeatherDisplay:10.37,2013-04-11 22:04:00,
2013-04-11 17:09:00,33.5,31.7,29.65,NE,46,8.1,8.1,93,0.03,RA,,0.33,WeatherDisplay:10.37,2013-04-11 22:09:00,
2013-04-11 17:14:00,33.4,31.6,29.66,NE,47,10.4,10.4,93,0.03,RA,,0.33,WeatherDisplay:10.37,2013-04-11 22:14:00,
2013-04-11 17:19:00,33.4,31.6,29.66,NE,56,5.8,5.8,93,0.02,OVC,,0.33,WeatherDisplay:10.37,2013-04-11 22:19:00,
2013-04-11 17:24:00,33.2,31.4,29.65,ENE,59,10.4,10.4,93,0.02,OVC,,0.33,WeatherDisplay:10.37,2013-04-11 22:24:00,
2013-04-11 17:29:00,33.2,31.4,29.66,NNE,23,4.6,4.6,93,0.03,RA,,0.34,WeatherDisplay:10.37,2013-04-11 22:29:00,
2013-04-11 17:34:00,33.2,31.4,29.66,NNE,27,3.5,3.5,93,0.03,RA,,0.34,WeatherDisplay:10.37,2013-04-11 22:34:00,
2013-04-11 17:39:00,33.4,31.6,29.66,NE,49,9.2,9.2,93,0.03,OVC,,0.34,WeatherDisplay:10.37,2013-04-11 22:39:00,
2013-04-11 17:44:00,33.2,31.4,29.66,ENE,68,10.0,10.0,93,0.02,OVC,,0.34,WeatherDisplay:10.37,2013-04-11 22:44:00,
2013-04-11 17:49:00,33.2,31.4,29.66,ENE,71,11.0,11.0,93,0.02,OVC,,0.34,WeatherDisplay:10.37,2013-04-11 22:49:00,
2013-04-11 17:54:00,33.1,31.3,29.66,NE,43,6.0,6.0,93,0.03,RA,,0.35,WeatherDisplay:10.37,2013-04-11 22:54:00,
2013-04-11 17:59:00,33.1,31.3,29.66,NNE,28,6.0,6.0,93,0.03,RA,,0.35,WeatherDisplay:10.37,2013-04-11 22:59:00,
2013-04-11 18:04:00,32.9,31.1,29.66,ENE,59,8.1,8.1,93,0.03,OVC,,0.35,WeatherDisplay:10.37,2013-04-11 23:04:00,
2013-04-11 18:09:00,32.9,31.1,29.66,SE,132,3.5,3.5,93,0.02,OVC,,0.35,WeatherDisplay:10.37,2013-04-11 23:09:00,
2013-04-11 18:14:00,32.9,31.1,29.66,NE,53,3.5,3.5,93,0.02,OVC,,0.35,WeatherDisplay:10.37,2013-04-11 23:14:00,
2013-04-11 18:19:00,32.9,31.1,29.66,NE,34,3.5,3.5,93,0.03,RA,,0.36,WeatherDisplay:10.37,2013-04-11 23:19:00,
2013-04-11 18:24:00,32.9,31.1,29.66,ESE,102,6.0,6.0,93,0.03,RA,,0.36,WeatherDisplay:10.37,2013-04-11 23:24:00,
2013-04-11 18:29:00,32.9,31.1,29.66,NE,37,4.6,4.6,93,0.02,OVC,,0.36,WeatherDisplay:10.37,2013-04-11 23:29:00,
2013-04-11 18:34:00,32.8,31.0,29.66,NE,46,5.0,5.0,93,0.02,OVC,,0.36,WeatherDisplay:10.37,2013-04-11 23:34:00,
2013-04-11 18:39:00,32.7,30.9,29.66,NE,51,10.4,10.4,93,0.02,OVC,,0.36,WeatherDisplay:10.37,2013-04-11 23:39:00,
2013-04-11 18:44:00,32.5,30.7,29.66,ENE,74,5.8,5.8,93,0.02,OVC,,0.36,WeatherDisplay:10.37,2013-04-11 23:44:00,
2013-04-11 18:49:00,32.5,30.7,29.66,ENE,61,5.0,5.0,93,0.02,OVC,,0.36,WeatherDisplay:10.37,2013-04-11 23:49:00,
2013-04-11 18:54:00,32.4,30.6,29.66,NE,34,4.6,4.6,93,0.01,OVC,,0.36,WeatherDisplay:10.37,2013-04-11 23:54:00,
2013-04-11 18:59:00,32.4,30.6,29.66,NNE,33,6.9,6.9,93,0.01,OVC,,0.36,WeatherDisplay:10.37,2013-04-11 23:59:00,
2013-04-11 19:04:00,32.2,30.7,29.66,NE,40,6.9,6.9,94,0.01,OVC,,0.36,WeatherDisplay:10.37,2013-04-12 00:04:00,
2013-04-11 19:09:00,32.2,30.7,29.66,NNE,28,11.5,11.5,94,0.01,OVC,,0.36,WeatherDisplay:10.37,2013-04-12 00:09:00,
2013-04-11 19:14:00,32.2,30.7,29.65,NE,42,4.6,4.6,94,0.01,OVC,,0.36,WeatherDisplay:10.37,2013-04-12 00:14:00,
2013-04-11 19:19:00,32.2,30.7,29.65,ENE,58,3.5,3.5,94,0.00,OVC,,0.36,WeatherDisplay:10.37,2013-04-12 00:19:00,
2013-04-11 19:24:00,32.2,30.7,29.65,NE,34,10.4,10.4,94,0.00,OVC,,0.36,WeatherDisplay:10.37,2013-04-12 00:24:00,
2013-04-11 19:29:00,32.2,30.7,29.64,ENE,67,5.0,5.0,94,0.00,OVC,,0.36,WeatherDisplay:10.37,2013-04-12 00:29:00,
2013-04-11 19:34:00,32.1,30.6,29.64,NNE,15,4.0,4.0,94,0.00,OVC,,0.36,WeatherDisplay:10.37,2013-04-12 00:34:00,
2013-04-11 19:40:00,32.1,30.6,29.64,ENE,58,5.8,5.8,94,0.00,OVC,,0.36,WeatherDisplay:10.37,2013-04-12 00:40:00,
2013-04-11 19:45:00,32.1,30.6,29.64,NE,53,3.5,3.5,94,0.00,OVC,,0.36,WeatherDisplay:10.37,2013-04-12 00:45:00,
2013-04-11 19:50:00,32.1,30.6,29.64,NE,34,5.8,5.8,94,0.00,OVC,,0.36,WeatherDisplay:10.37,2013-04-12 00:50:00,
2013-04-11 19:55:00,32.1,30.6,29.64,ENE,65,7.0,7.0,94,0.00,OVC,,0.36,WeatherDisplay:10.37,2013-04-12 00:55:00,
2013-04-11 20:00:00,32.1,30.6,29.64,ENE,59,11.5,11.5,94,0.00,OVC,,0.36,WeatherDisplay:10.37,2013-04-12 01:00:00,
2013-04-11 20:05:00,31.9,30.4,29.64,NNE,16,5.8,5.8,94,0.00,OVC,,0.36,WeatherDisplay:10.37,2013-04-12 01:05:00,
2013-04-11 20:10:00,31.9,30.4,29.64,ENE,73,6.9,6.9,94,0.00,OVC,,0.36,WeatherDisplay:10.37,2013-04-12 01:10:00,
2013-04-11 20:15:00,31.9,30.4,29.65,ENE,59,9.2,9.2,94,0.00,OVC,,0.36,WeatherDisplay:10.37,2013-04-12 01:15:00,
2013-04-11 20:20:00,31.9,30.4,29.65,NE,55,10.4,10.4,94,0.00,OVC,,0.36,WeatherDisplay:10.37,2013-04-12 01:20:00,
2013-04-11 20:25:00,31.8,30.3,29.65,East,97,5.8,5.8,94,0.00,OVC,,0.36,WeatherDisplay:10.37,2013-04-12 01:25:00,
2013-04-11 20:30:00,31.6,30.1,29.66,ENE,69,5.8,5.8,94,0.00,OVC,,0.36,WeatherDisplay:10.37,2013-04-12 01:30:00,
2013-04-11 20:35:00,31.5,30.0,29.66,NNE,17,11.5,11.5,94,0.00,OVC,,0.36,WeatherDisplay:10.37,2013-04-12 01:35:00,
2013-04-11 20:40:00,31.5,30.0,29.66,NE,51,6.0,6.0,94,0.00,OVC,,0.36,WeatherDisplay:10.37,2013-04-12 01:40:00,
2013-04-11 20:45:00,31.5,30.0,29.66,NE,56,5.8,5.8,94,0.00,OVC,,0.36,WeatherDisplay:10.37,2013-04-12 01:45:00,
2013-04-11 20:50:00,31.5,30.0,29.66,NE,56,6.0,6.0,94,0.00,OVC,,0.36,WeatherDisplay:10.37,2013-04-12 01:50:00,
2013-04-11 20:55:00,31.5,30.0,29.66,NE,56,4.6,4.6,94,0.00,OVC,,0.36,WeatherDisplay:10.37,2013-04-12 01:55:00,
2013-04-11 21:00:00,31.5,30.0,29.65,NE,38,5.8,5.8,94,0.00,OVC,,0.36,WeatherDisplay:10.37,2013-04-12 02:00:00,
2013-04-11 21:05:00,31.5,30.0,29.65,ENE,60,6.9,6.9,94,0.00,OVC,,0.36,WeatherDisplay:10.37,2013-04-12 02:05:00,
2013-04-11 21:10:00,31.2,29.7,29.65,NE,54,11.5,11.5,94,0.00,OVC,,0.36,WeatherDisplay:10.37,2013-04-12 02:10:00,
2013-04-11 21:15:00,30.9,29.4,29.66,East,101,10.4,10.4,94,0.00,OVC,,0.36,WeatherDisplay:10.37,2013-04-12 02:15:00,
2013-04-11 21:20:00,30.7,29.2,29.66,ENE,59,9.2,9.2,94,0.00,OVC,,0.36,WeatherDisplay:10.37,2013-04-12 02:20:00,
2013-04-11 21:25:00,30.7,29.2,29.66,East,79,5.8,5.8,94,0.00,OVC,,0.36,WeatherDisplay:10.37,2013-04-12 02:25:00,
2013-04-11 21:30:00,30.7,29.2,29.66,NNE,23,4.6,4.6,94,0.01,RA,,0.37,WeatherDisplay:10.37,2013-04-12 02:30:00,
2013-04-11 21:35:00,30.7,29.2,29.66,NNE,28,5.8,5.8,94,0.01,RA,,0.37,WeatherDisplay:10.37,2013-04-12 02:35:00,
2013-04-11 21:40:00,30.7,29.2,29.66,NE,44,5.8,5.8,94,0.01,OVC,,0.37,WeatherDisplay:10.37,2013-04-12 02:40:00,
2013-04-11 21:45:00,30.6,29.1,29.66,ENE,57,6.9,6.9,94,0.01,OVC,,0.37,WeatherDisplay:10.37,2013-04-12 02:45:00,
2013-04-11 21:50:00,30.6,29.1,29.66,ENE,61,3.5,3.5,94,0.01,OVC,,0.37,WeatherDisplay:10.37,2013-04-12 02:50:00,
2013-04-11 21:55:00,30.6,29.1,29.66,ENE,57,5.8,5.8,94,0.01,OVC,,0.37,WeatherDisplay:10.37,2013-04-12 02:55:00,
2013-04-11 22:00:00,30.6,29.1,29.66,NE,38,9.2,9.2,94,0.01,OVC,,0.37,WeatherDisplay:10.37,2013-04-12 03:00:00,
2013-04-11 22:05:00,30.6,29.1,29.66,NNE,19,4.6,4.6,94,0.01,OVC,,0.37,WeatherDisplay:10.37,2013-04-12 03:05:00,
2013-04-11 22:10:00,30.4,28.9,29.66,NE,49,4.6,4.6,94,0.01,OVC,,0.37,WeatherDisplay:10.37,2013-04-12 03:10:00,
2013-04-11 22:15:00,30.4,28.9,29.66,NE,38,5.8,5.8,94,0.01,OVC,,0.37,WeatherDisplay:10.37,2013-04-12 03:15:00,
2013-04-11 22:20:00,30.4,28.9,29.66,NE,42,6.9,6.9,94,0.01,OVC,,0.37,WeatherDisplay:10.37,2013-04-12 03:20:00,
2013-04-11 22:25:00,30.3,28.8,29.66,ENE,60,6.9,6.9,94,0.01,OVC,,0.37,WeatherDisplay:10.37,2013-04-12 03:25:00,
2013-04-11 22:30:00,30.3,28.8,29.66,NE,56,5.8,5.8,94,0.00,OVC,,0.37,WeatherDisplay:10.37,2013-04-12 03:30:00,
2013-04-11 22:35:00,30.1,28.6,29.66,ENE,63,9.2,9.2,94,0.00,OVC,,0.37,WeatherDisplay:10.37,2013-04-12 03:35:00,
2013-04-11 22:40:00,30.1,28.6,29.66,ENE,57,9.0,9.0,94,0.00,OVC,,0.37,WeatherDisplay:10.37,2013-04-12 03:40:00,
2013-04-11 22:45:00,30.1,28.6,29.66,ENE,59,3.5,3.5,94,0.00,OVC,,0.37,WeatherDisplay:10.37,2013-04-12 03:45:00,
2013-04-11 22:50:00,30.1,28.6,29.66,NE,48,4.0,4.0,94,0.00,OVC,,0.37,WeatherDisplay:10.37,2013-04-12 03:50:00,
2013-04-11 22:55:00,30.1,28.6,29.66,ENE,70,5.8,5.8,94,0.00,OVC,,0.37,WeatherDisplay:10.37,2013-04-12 03:55:00,
2013-04-11 23:00:00,30.1,28.6,29.66,NE,38,5.8,5.8,94,0.00,OVC,,0.37,WeatherDisplay:10.37,2013-04-12 04:00:00,
2013-04-11 23:05:00,30.1,28.6,29.66,NE,53,5.8,5.8,94,0.00,OVC,,0.37,WeatherDisplay:10.37,2013-04-12 04:05:00,
2013-04-11 23:10:00,30.0,28.5,29.66,ENE,57,5.8,5.8,94,0.00,OVC,,0.37,WeatherDisplay:10.37,2013-04-12 04:10:00,
2013-04-11 23:15:00,30.0,28.5,29.65,ENE,63,3.5,3.5,94,0.00,OVC,,0.37,WeatherDisplay:10.37,2013-04-12 04:15:00,
2013-04-11 23:20:00,30.0,28.5,29.65,NNE,26,4.6,4.6,94,0.00,OVC,,0.37,WeatherDisplay:10.37,2013-04-12 04:20:00,
2013-04-11 23:25:00,30.0,28.5,29.65,NNE,17,4.6,4.6,94,0.00,OVC,,0.37,WeatherDisplay:10.37,2013-04-12 04:25:00,
2013-04-11 23:30:00,29.8,28.3,29.65,NE,43,8.1,8.1,94,0.00,OVC,,0.37,WeatherDisplay:10.37,2013-04-12 04:30:00,
2013-04-11 23:35:00,29.8,28.3,29.65,NNE,24,6.9,6.9,94,0.00,OVC,,0.37,WeatherDisplay:10.37,2013-04-12 04:35:00,
2013-04-11 23:40:00,29.8,28.3,29.65,ENE,66,9.2,9.2,94,0.00,OVC,,0.37,WeatherDisplay:10.37,2013-04-12 04:40:00,
2013-04-11 23:45:00,29.8,28.3,29.66,NNE,16,7.0,7.0,94,0.00,OVC,,0.37,WeatherDisplay:10.37,2013-04-12 04:45:00,
2013-04-11 23:50:00,29.7,28.2,29.66,North,5,5.8,5.8,94,0.00,OVC,,0.37,WeatherDisplay:10.37,2013-04-12 04:50:00,
2013-04-11 23:55:00,29.7,28.2,29.66,NE,44,6.9,6.9,94,0.00,OVC,,0.37,WeatherDisplay:10.37,2013-04-12 04:55:00,